Time;durP1;ratioP1;P1;durP2;ratioP2;P2;SDS_P1;SDS_P2;PMS_P1;PMS_P2;Temp;Humidity;BMP_temperature;BMP_pressure;BME280_temperature;BME280_humidity;BME280_pressure;Samples;Min_cycle;Max_cycle;Signal;HPM_P1;HPM_P2
2021/08/10 00:01:33;;;;;;;9.75;5.53;;;;;;;16.63;100.00;100747.91;716037;1177;114113;-89
2021/08/10 00:16:36;;;;;;;7.70;4.63;;;;;;;16.38;100.00;100754.98;715323;1202;115245;-91
2021/08/10 00:31:38;;;;;;;7.28;4.70;;;;;;;16.13;100.00;100753.08;715019;1177;114175;-88
2021/08/10 00:46:41;;;;;;;7.83;4.75;;;;;;;16.03;100.00;100755.02;714659;1202;115501;-84
2021/08/10 01:01:43;;;;;;;6.90;4.47;;;;;;;15.87;100.00;100752.31;714807;1177;114187;-88
2021/08/10 01:17:06;;;;;;;9.48;5.50;;;;;;;15.69;100.00;100755.84;715082;1202;115383;-88
2021/08/10 01:32:09;;;;;;;13.13;7.53;;;;;;;15.78;100.00;100748.77;714345;1200;114618;-88
2021/08/10 01:47:13;;;;;;;14.28;7.80;;;;;;;15.87;100.00;100745.20;714331;1200;115025;-88
2021/08/10 02:02:16;;;;;;;13.55;6.55;;;;;;;15.86;100.00;100735.59;714436;1202;115240;-88
2021/08/10 02:17:18;;;;;;;18.05;8.30;;;;;;;15.91;100.00;100743.89;714516;1202;115846;-89
2021/08/10 02:32:25;;;;;;;15.75;7.98;;;;;;;15.84;100.00;100753.46;714389;1200;114415;-89
2021/08/10 02:47:30;;;;;;;48.05;18.75;;;;;;;15.71;100.00;100748.56;714841;1201;115322;-89
2021/08/10 03:02:52;;;;;;;8.70;5.48;;;;;;;15.59;100.00;100741.91;714137;1200;115602;-87
2021/08/10 03:18:03;;;;;;;17.10;10.20;;;;;;;15.43;100.00;100738.17;714572;1179;114795;-89
2021/08/10 03:33:07;;;;;;;8.07;4.33;;;;;;;15.26;100.00;100733.77;714828;1179;115007;-88
2021/08/10 03:48:11;;;;;;;8.10;5.30;;;;;;;15.28;100.00;100732.64;715040;1177;114180;-88
2021/08/10 04:03:14;;;;;;;16.90;8.10;;;;;;;15.18;100.00;100725.80;716160;1190;115573;-85
2021/08/10 04:18:20;;;;;;;18.55;8.65;;;;;;;15.42;100.00;100723.28;715044;1200;115603;-86
2021/08/10 04:33:23;;;;;;;13.48;6.50;;;;;;;15.80;100.00;100723.84;716766;1177;114185;-87
2021/08/10 04:48:25;;;;;;;10.97;6.07;;;;;;;16.25;100.00;100721.84;715387;1177;114540;-89
2021/08/10 05:03:30;;;;;;;16.15;10.65;;;;;;;16.76;100.00;100719.11;716954;1203;115162;-88
2021/08/10 05:18:33;;;;;;;9.03;6.47;;;;;;;17.45;100.00;100726.67;714782;1178;114888;-88
2021/08/10 05:33:37;;;;;;;9.75;4.65;;;;;;;18.24;100.00;100728.55;713964;1200;114575;-87
2021/08/10 05:48:39;;;;;;;11.15;5.80;;;;;;;18.93;100.00;100734.91;714145;1200;115035;-89
2021/08/10 06:03:41;;;;;;;7.15;4.25;;;;;;;19.60;98.10;100714.63;713921;1205;114344;-88
2021/08/10 06:18:43;;;;;;;4.80;3.10;;;;;;;20.25;92.31;100712.14;714135;1200;115236;-88
2021/08/10 06:33:45;;;;;;;5.43;3.20;;;;;;;20.84;87.79;100710.25;714902;1202;114032;-86
2021/08/10 06:49:01;;;;;;;5.43;3.00;;;;;;;21.50;83.97;100696.55;714011;1202;114583;-86
2021/08/10 07:04:04;;;;;;;5.53;3.05;;;;;;;22.27;81.30;100693.77;714179;1206;115224;-79
2021/08/10 07:19:06;;;;;;;11.05;3.05;;;;;;;23.07;77.71;100680.44;713998;1202;114554;-79
2021/08/10 07:34:08;;;;;;;7.18;2.43;;;;;;;23.69;74.05;100690.80;713814;1200;114852;-79
2021/08/10 07:49:11;;;;;;;7.20;3.60;;;;;;;24.81;73.77;100702.10;714030;1177;114109;-81
2021/08/10 08:04:14;;;;;;;3.60;2.55;;;;;;;25.64;71.73;100690.11;714027;1177;114487;-80
2021/08/10 08:19:17;;;;;;;2.13;1.88;;;;;;;26.36;69.17;100677.80;715309;1200;114716;-78
2021/08/10 08:34:19;;;;;;;2.83;2.03;;;;;;;26.99;68.05;100678.20;715794;1200;113891;-82
2021/08/10 08:49:22;;;;;;;6.07;2.00;;;;;;;27.68;65.05;100672.14;717498;1200;113979;-83
2021/08/10 09:04:25;;;;;;;2.73;1.83;;;;;;;27.91;61.80;100676.59;717385;1203;114678;-82
2021/08/10 09:19:52;;;;;;;3.78;1.93;;;;;;;28.51;60.39;100663.64;717496;1186;114012;-82
2021/08/10 09:35:18;;;;;;;2.57;1.77;;;;;;;29.25;58.61;100656.33;715469;1200;114046;-83
2021/08/10 09:50:26;;;;;;;3.38;2.20;;;;;;;27.75;57.90;100651.24;715339;1203;113975;-82
2021/08/10 10:05:43;;;;;;;3.10;1.85;;;;;;;27.09;59.65;100621.09;717849;1200;113883;-80
2021/08/10 10:20:48;;;;;;;2.90;1.95;;;;;;;27.34;58.92;100621.60;715517;1200;113814;-80
2021/08/10 10:35:50;;;;;;;3.00;1.73;;;;;;;28.61;56.02;100612.50;715751;1177;114009;-85
2021/08/10 10:51:29;;;;;;;5.15;2.00;;;;;;;27.85;57.60;100583.25;717919;1200;113376;-87
2021/08/10 11:06:32;;;;;;;;;;;;;;;27.65;55.12;100570.21;714713;1196;114120;-77
2021/08/10 11:21:35;;;;;;;6.15;2.30;;;;;;;27.65;56.31;100557.58;713890;1200;101277;-78
2021/08/10 11:36:37;;;;;;;4.83;1.98;;;;;;;27.20;56.40;100539.47;713825;1202;114531;-78
2021/08/10 11:51:42;;;;;;;8.08;5.05;;;;;;;26.33;58.06;100531.19;713896;1202;115439;-83
2021/08/10 12:06:53;;;;;;;8.80;1.90;;;;;;;25.21;60.58;100529.95;716070;1200;114063;-82
2021/08/10 12:21:55;;;;;;;12.25;2.60;;;;;;;21.72;70.55;100616.38;716007;1205;114013;-82
2021/08/10 12:37:03;;;;;;;9.73;2.67;;;;;;;20.12;85.10;100553.04;714088;1176;114594;-87
2021/08/10 12:52:16;;;;;;;16.00;8.03;;;;;;;21.16;89.98;100548.02;714558;1202;115553;-82
2021/08/10 13:07:19;;;;;;;10.10;7.03;;;;;;;21.09;93.79;100539.98;714003;1203;116276;-78
2021/08/10 13:22:41;;;;;;;14.05;6.58;;;;;;;21.72;96.83;100513.10;713787;1177;114144;-79
2021/08/10 13:37:43;;;;;;;6.90;4.50;;;;;;;22.67;100.00;100461.22;713816;1200;115386;-79
2021/08/10 13:52:46;;;;;;;8.68;3.83;;;;;;;23.10;100.00;100436.55;713931;1202;115201;-79
2021/08/10 14:07:49;;;;;;;9.48;5.65;;;;;;;23.50;100.00;100423.98;713484;1202;115885;-78
2021/08/10 14:22:51;;;;;;;16.50;11.13;;;;;;;25.98;100.00;100413.70;713406;1202;115503;-78
2021/08/10 14:37:55;;;;;;;6.40;3.75;;;;;;;37.03;71.69;100410.36;713852;1203;114503;-76
2021/08/10 14:52:58;;;;;;;4.00;2.60;;;;;;;32.85;60.63;100394.02;713809;1205;113863;-82
2021/08/10 15:08:00;;;;;;;5.40;2.83;;;;;;;27.89;69.75;100384.95;714249;1203;114144;-87
2021/08/10 15:23:02;;;;;;;9.40;5.90;;;;;;;26.33;76.73;100379.79;715994;1202;115381;-92
2021/08/10 15:38:05;;;;;;;9.53;5.28;;;;;;;25.70;81.75;100366.88;715940;1203;113905;-90
2021/08/10 15:53:07;;;;;;;11.58;7.10;;;;;;;24.86;86.00;100354.33;714705;1200;114298;-82
2021/08/10 16:08:10;;;;;;;13.10;6.80;;;;;;;24.37;89.98;100345.48;714691;1201;114538;-79
2021/08/10 16:23:14;;;;;;;6.23;4.33;;;;;;;23.71;92.81;100326.39;714616;1203;115348;-79
2021/08/10 16:38:16;;;;;;;8.50;5.77;;;;;;;23.14;96.66;100305.08;714063;1202;115027;-78
2021/08/10 16:53:18;;;;;;;19.85;11.88;;;;;;;22.71;100.00;100275.31;714356;1202;114390;-80
2021/08/10 17:08:24;;;;;;;23.80;13.35;;;;;;;22.99;100.00;100263.39;714058;1200;115638;-81
2021/08/10 17:23:33;;;;;;;34.90;18.13;;;;;;;23.32;100.00;100266.84;714041;1200;114488;-79
2021/08/10 17:38:36;;;;;;;23.83;12.03;;;;;;;22.90;100.00;100284.22;714212;1201;114566;-80
2021/08/10 17:53:38;;;;;;;23.95;15.00;;;;;;;22.66;100.00;100309.89;714195;1176;114545;-76
2021/08/10 18:08:41;;;;;;;106.75;61.60;;;;;;;22.23;100.00;100307.81;714934;1176;114520;-78
2021/08/10 18:23:43;;;;;;;33.90;21.33;;;;;;;22.09;100.00;100317.70;713981;1202;115929;-77
2021/08/10 18:38:45;;;;;;;19.10;12.70;;;;;;;21.38;100.00;100365.42;714037;1206;116102;-77
2021/08/10 18:53:57;;;;;;;7.88;5.50;;;;;;;21.11;100.00;100361.91;714871;1202;114538;-76
2021/08/10 19:09:00;;;;;;;7.20;4.48;;;;;;;20.68;100.00;100354.17;714607;1177;114047;-83
2021/08/10 19:24:02;;;;;;;6.80;3.80;;;;;;;20.37;100.00;100327.02;714736;1202;114928;-83
2021/08/10 19:39:04;;;;;;;9.10;5.98;;;;;;;20.17;100.00;100347.42;715703;1177;114416;-85
2021/08/10 19:54:10;;;;;;;8.75;4.98;;;;;;;19.76;100.00;100349.80;714396;1177;114121;-84
2021/08/10 20:09:12;;;;;;;14.05;8.35;;;;;;;19.68;100.00;100339.30;713936;1187;114831;-83
2021/08/10 20:24:19;;;;;;;18.57;12.90;;;;;;;19.60;100.00;100320.83;713976;1200;115732;-85
2021/08/10 20:39:23;;;;;;;12.20;8.40;;;;;;;18.80;100.00;100342.16;713959;1203;116108;-85
2021/08/10 20:54:25;;;;;;;8.60;5.95;;;;;;;18.52;100.00;100350.03;713900;1206;115849;-84
2021/08/10 21:09:28;;;;;;;8.70;5.85;;;;;;;18.62;100.00;100366.48;713818;1205;114328;-84
2021/08/10 21:24:30;;;;;;;10.13;6.73;;;;;;;18.60;100.00;100369.33;713790;1202;115116;-83
2021/08/10 21:39:33;;;;;;;11.45;6.83;;;;;;;18.37;100.00;100369.46;713774;1203;114200;-80
2021/08/10 21:54:35;;;;;;;18.05;10.40;;;;;;;18.19;100.00;100348.59;713970;1205;114891;-83
2021/08/10 22:09:37;;;;;;;13.28;7.75;;;;;;;18.11;100.00;100359.31;713876;1185;114351;-84
2021/08/10 22:24:39;;;;;;;13.50;7.90;;;;;;;17.56;100.00;100351.50;713699;1202;114545;-84
2021/08/10 22:39:41;;;;;;;9.65;6.70;;;;;;;17.34;100.00;100336.45;713971;1200;115918;-83
2021/08/10 22:54:44;;;;;;;12.95;8.45;;;;;;;16.99;100.00;100333.42;714121;1202;114182;-85
2021/08/10 23:09:46;;;;;;;11.93;7.03;;;;;;;16.74;100.00;100352.08;714502;1199;115192;-85
2021/08/10 23:24:48;;;;;;;9.43;6.63;;;;;;;16.71;100.00;100333.89;714445;1200;114466;-85
2021/08/10 23:39:50;;;;;;;11.57;6.37;;;;;;;16.64;100.00;100331.93;714039;1200;115206;-85
2021/08/10 23:54:56;;;;;;;9.27;5.77;;;;;;;16.46;100.00;100340.12;713799;1206;114109;-84
